Time;durP1;ratioP1;P1;durP2;ratioP2;P2;SDS_P1;SDS_P2;PMS_P1;PMS_P2;Temp;Humidity;BMP_temperature;BMP_pressure;BME280_temperature;BME280_humidity;BME280_pressure;Samples;Min_cycle;Max_cycle;Signal;HPM_P1;HPM_P2
2022/09/14 00:00:52;;;;;;;;;;;;;;;22.31;73.15;100648.50;7282677;19;154113;-57
2022/09/14 00:03:39;;;;;;;;;;;;;;;22.30;72.82;100653.34;7283703;19;153072;-57
2022/09/14 00:06:07;;;;;;;;;;;;;;;22.30;73.06;100642.06;7283662;19;153564;-56
2022/09/14 00:08:42;;;;;;;;;;;;;;;22.31;72.97;100648.50;7279415;19;152943;-56
2022/09/14 00:11:13;;;;;;;;;;;;;;;22.31;73.63;100643.72;7283368;19;152138;-57
2022/09/14 00:13:43;;;;;;;;;;;;;;;22.33;73.46;100644.22;7281879;19;152427;-57
2022/09/14 00:16:13;;;;;;;;;;;;;;;22.34;73.57;100645.06;7291042;19;155168;-57
2022/09/14 00:18:44;;;;;;;;;;;;;;;22.34;73.76;100636.59;7284407;19;152704;-57
2022/09/14 00:21:12;;;;;;;;;;;;;;;22.34;73.78;100630.97;7279458;19;153588;-56
2022/09/14 00:23:40;;;;;;;;;;;;;;;22.36;73.88;100629.47;7283968;19;153001;-57
2022/09/14 00:26:09;;;;;;;;;;;;;;;22.36;73.60;100623.03;7284717;19;152692;-57
2022/09/14 00:28:47;;;;;;;;;;;;;;;22.37;73.34;100621.88;7281074;19;154598;-57
2022/09/14 00:31:14;;;;;;;;;;;;;;;22.38;73.50;100621.56;7282549;19;152510;-57
2022/09/14 00:33:42;;;;;;;;;;;;;;;22.37;73.61;100625.50;7282901;19;152208;-57
2022/09/14 00:36:11;;;;;;;;;;;;;;;22.37;73.30;100617.06;7287810;19;153766;-57
2022/09/14 00:38:41;;;;;;;;;;;;;;;22.38;73.54;100618.72;7282871;19;152832;-56
2022/09/14 00:41:10;;;;;;;;;;;;;;;22.37;73.57;100617.06;7283491;19;152788;-56
2022/09/14 00:43:54;;;;;;;;;;;;;;;22.38;73.81;100610.28;7279745;19;152842;-57
2022/09/14 00:46:21;;;;;;;;;;;;;;;22.39;73.95;100613.94;7284626;19;153473;-57
2022/09/14 00:48:50;;;;;;;;;;;;;;;22.37;74.09;100608.63;7281261;19;153356;-57
2022/09/14 00:51:18;;;;;;;;;;;;;;;22.38;73.75;100593.41;7282291;19;152043;-56
2022/09/14 00:53:45;;;;;;;;;;;;;;;22.39;73.89;100592.25;7282247;19;152981;-57
2022/09/14 00:56:13;;;;;;;;;;;;;;;22.38;73.79;100593.41;7283124;19;154887;-57
2022/09/14 00:58:48;;;;;;;;;;;;;;;22.38;74.02;100581.31;7287553;19;152016;-57
2022/09/14 01:01:16;;;;;;;;;;;;;;;22.38;74.08;100581.31;7282705;19;153927;-56
2022/09/14 01:03:43;;;;;;;;;;;;;;;22.38;73.75;100575.69;7282135;19;152626;-57
2022/09/14 01:06:25;;;;;;;;;;;;;;;22.38;74.03;100575.69;7283100;19;152681;-57
2022/09/14 01:09:08;;;;;;;;;;;;;;;22.38;73.72;100570.03;7275734;19;152886;-57
2022/09/14 01:11:41;;;;;;;;;;;;;;;22.39;73.95;100568.91;7283604;19;153463;-57
2022/09/14 01:14:08;;;;;;;;;;;;;;;22.38;73.87;100565.25;7280451;19;152697;-56
2022/09/14 01:16:39;;;;;;;;;;;;;;;22.38;74.31;100559.63;7266940;19;153443;-56
2022/09/14 01:19:33;;;;;;;;;;;;;;;22.38;74.23;100559.63;7278748;19;152382;-56
2022/09/14 01:22:05;;;;;;;;;;;;;;;22.40;74.59;100557.28;7289439;19;153417;-56
2022/09/14 01:24:47;;;;;;;;;;;;;;;22.47;74.04;100551.16;7282550;19;154561;-56
2022/09/14 01:27:24;;;;;;;;;;;;;;;22.45;73.19;100547.84;7281613;19;152552;-57
2022/09/14 01:30:04;;;;;;;;;;;;;;;22.40;74.04;100540.41;7280542;19;153477;-56
2022/09/14 01:32:40;;;;;;;;;;;;;;;22.41;73.76;100544.88;7281297;19;152962;-56
2022/09/14 01:35:26;;;;;;;;;;;;;;;22.41;73.88;100535.59;7282104;19;152913;-57
2022/09/14 01:38:16;;;;;;;;;;;;;;;22.41;73.85;100535.59;7282106;19;153742;-56
2022/09/14 01:40:45;;;;;;;;;;;;;;;22.40;73.87;100539.56;7279897;19;154545;-57
2022/09/14 01:43:21;;;;;;;;;;;;;;;22.42;74.21;100540.91;7280636;19;152312;-56
2022/09/14 01:45:50;;;;;;;;;;;;;;;22.41;73.71;100539.25;7287405;19;154034;-56
2022/09/14 01:48:21;;;;;;;;;;;;;;;22.40;72.82;100531.94;7283440;19;152985;-56
2022/09/14 01:50:55;;;;;;;;;;;;;;;22.37;72.90;100532.63;7276020;19;153014;-56
2022/09/14 01:53:22;;;;;;;;;;;;;;;22.37;72.79;100528.97;7281964;19;152355;-56
2022/09/14 01:55:58;;;;;;;;;;;;;;;22.34;72.88;100530.47;7281441;19;152588;-56
2022/09/14 01:58:30;;;;;;;;;;;;;;;22.33;72.77;100526.00;7278566;19;153847;-56
2022/09/14 02:01:00;;;;;;;;;;;;;;;22.33;72.34;100531.63;7281161;19;152723;-56
2022/09/14 02:03:35;;;;;;;;;;;;;;;22.33;72.45;100527.97;7281138;19;153963;-56
2022/09/14 02:06:05;;;;;;;;;;;;;;;22.31;72.10;100521.84;7280980;19;152758;-56
2022/09/14 02:08:43;;;;;;;;;;;;;;;22.30;72.33;100521.03;7286832;19;152849;-57
2022/09/14 02:11:12;;;;;;;;;;;;;;;22.28;72.06;100526.16;7277135;19;152712;-56
2022/09/14 02:13:39;;;;;;;;;;;;;;;22.29;72.09;100530.63;7275762;19;155071;-56
2022/09/14 02:16:07;;;;;;;;;;;;;;;22.28;72.13;100528.16;7281064;19;152191;-56
2022/09/14 02:18:44;;;;;;;;;;;;;;;22.27;72.09;100518.88;7273696;19;152388;-54
2022/09/14 02:21:17;;;;;;;;;;;;;;;22.27;71.98;100518.03;7280636;19;151908;-55
2022/09/14 02:23:45;;;;;;;;;;;;;;;22.26;71.99;100517.22;7280163;19;152460;-55
2022/09/14 02:26:13;;;;;;;;;;;;;;;22.25;72.15;100503.50;7280421;19;154130;-55
2022/09/14 02:28:45;;;;;;;;;;;;;;;22.25;72.26;100511.94;7278112;19;151925;-56
2022/09/14 02:31:26;;;;;;;;;;;;;;;22.26;72.39;100520.03;7284744;19;153523;-55
2022/09/14 02:34:07;;;;;;;;;;;;;;;22.27;72.24;100518.88;7279451;19;152211;-55
2022/09/14 02:36:45;;;;;;;;;;;;;;;22.27;72.52;100513.25;7282414;19;152780;-55
2022/09/14 02:39:18;;;;;;;;;;;;;;;22.28;72.63;100508.44;7275981;19;153193;-57
2022/09/14 02:41:52;;;;;;;;;;;;;;;22.28;72.68;100503.66;7281544;19;153423;-57
2022/09/14 02:44:48;;;;;;;;;;;;;;;22.27;72.59;100510.44;7281154;19;152831;-55
2022/09/14 02:47:34;;;;;;;;;;;;;;;22.27;72.72;100501.16;7282987;19;154209;-56
2022/09/14 02:50:06;;;;;;;;;;;;;;;22.29;72.70;100501.66;7286785;19;152541;-57
2022/09/14 02:52:38;;;;;;;;;;;;;;;22.27;72.75;100499.16;7293520;19;152571;-57
2022/09/14 02:55:08;;;;;;;;;;;;;;;22.29;72.77;100504.47;7284481;19;152193;-57
2022/09/14 02:57:53;;;;;;;;;;;;;;;22.29;72.89;100498.84;7284837;19;152866;-57
2022/09/14 03:00:20;;;;;;;;;;;;;;;22.28;73.31;100492.38;7285349;19;154203;-57
2022/09/14 03:02:47;;;;;;;;;;;;;;;22.27;73.38;100487.91;7286004;19;152262;-57
2022/09/14 03:05:14;;;;;;;;;;;;;;;22.29;73.22;100484.78;7284320;19;153760;-57
2022/09/14 03:07:41;;;;;;;;;;;;;;;22.28;73.30;100475.50;7283177;19;154194;-57
2022/09/14 03:10:08;;;;;;;;;;;;;;;22.29;72.83;100481.97;7282434;19;152243;-57
2022/09/14 03:12:36;;;;;;;;;;;;;;;22.29;73.03;100477.16;7281576;19;154093;-57
2022/09/14 03:15:04;;;;;;;;;;;;;;;22.29;72.93;100473.50;7292229;19;154080;-57
2022/09/14 03:17:31;;;;;;;;;;;;;;;22.28;73.69;100474.66;7285420;19;153728;-56
2022/09/14 03:20:01;;;;;;;;;;;;;;;22.29;73.39;100476.34;7279490;19;153593;-57
2022/09/14 03:22:31;;;;;;;;;;;;;;;22.28;73.42;100478.31;7286638;19;151966;-57
2022/09/14 03:24:58;;;;;;;;;;;;;;;22.29;72.99;100484.78;7284279;19;154036;-57
2022/09/14 03:27:25;;;;;;;;;;;;;;;22.29;73.66;100484.78;7283180;19;153492;-57
2022/09/14 03:29:52;;;;;;;;;;;;;;;22.28;72.95;100485.94;7284738;19;152060;-56
2022/09/14 03:32:19;;;;;;;;;;;;;;;22.29;73.31;100477.16;7283572;19;153704;-57
2022/09/14 03:34:46;;;;;;;;;;;;;;;22.28;73.45;100478.31;7283648;19;154325;-57
2022/09/14 03:37:13;;;;;;;;;;;;;;;22.28;73.23;100475.50;7293158;19;152565;-57
2022/09/14 03:39:41;;;;;;;;;;;;;;;22.28;73.39;100478.31;7284211;19;152897;-57
2022/09/14 03:42:08;;;;;;;;;;;;;;;22.28;73.26;100478.31;7285301;19;152360;-57
2022/09/14 03:44:35;;;;;;;;;;;;;;;22.27;73.38;100473.00;7283948;19;153968;-57
2022/09/14 03:47:02;;;;;;;;;;;;;;;22.27;73.44;100473.84;7279896;19;154544;-57
2022/09/14 03:49:29;;;;;;;;;;;;;;;22.28;73.48;100474.66;7285405;19;152406;-57
2022/09/14 03:51:56;;;;;;;;;;;;;;;22.28;73.56;100466.22;7284654;19;152903;-57
2022/09/14 03:54:25;;;;;;;;;;;;;;;22.26;73.54;100458.09;7283391;19;154322;-57
2022/09/14 03:56:53;;;;;;;;;;;;;;;22.27;73.48;100459.75;7285266;19;152049;-57
2022/09/14 03:59:20;;;;;;;;;;;;;;;22.27;73.69;100461.75;7288701;19;153097;-57
2022/09/14 04:01:47;;;;;;;;;;;;;;;22.27;73.70;100453.31;7285329;19;151894;-57
2022/09/14 04:04:14;;;;;;;;;;;;;;;22.26;73.49;100460.13;7282830;19;152525;-57
2022/09/14 04:06:41;;;;;;;;;;;;;;;22.26;73.36;100448.88;7285188;19;154091;-57
2022/09/14 04:09:08;;;;;;;;;;;;;;;22.26;73.77;100446.06;7282361;19;152434;-57
2022/09/14 04:11:35;;;;;;;;;;;;;;;22.26;73.79;100454.50;7282302;19;152815;-54
2022/09/14 04:14:03;;;;;;;;;;;;;;;22.25;74.24;100448.03;7278026;19;154009;-57
2022/09/14 04:16:30;;;;;;;;;;;;;;;22.26;74.25;100446.84;7285130;19;152209;-57
2022/09/14 04:18:57;;;;;;;;;;;;;;;22.26;73.89;100454.50;7281484;19;152521;-57
2022/09/14 04:21:24;;;;;;;;;;;;;;;22.26;74.11;100449.66;7284808;19;152327;-57
2022/09/14 04:23:52;;;;;;;;;;;;;;;22.26;73.90;100458.09;7282404;19;152182;-57
2022/09/14 04:26:39;;;;;;;;;;;;;;;22.27;74.05;100456.13;7283624;19;155163;-57
2022/09/14 04:29:07;;;;;;;;;;;;;;;22.26;74.47;100449.66;7281664;19;152455;-57
2022/09/14 04:31:34;;;;;;;;;;;;;;;22.26;74.58;100458.09;7282849;19;153083;-57
2022/09/14 04:34:02;;;;;;;;;;;;;;;22.24;74.49;100452.00;7282021;19;152190;-57
2022/09/14 04:36:29;;;;;;;;;;;;;;;22.26;74.81;100455.28;7283803;19;152688;-57
2022/09/14 04:39:01;;;;;;;;;;;;;;;22.26;74.35;100448.88;7283972;19;152780;-57
2022/09/14 04:41:29;;;;;;;;;;;;;;;22.26;74.27;100455.28;7284045;19;152957;-57
2022/09/14 04:43:56;;;;;;;;;;;;;;;22.27;74.32;100448.50;7287996;19;152304;-57
2022/09/14 04:46:25;;;;;;;;;;;;;;;22.27;74.40;100450.50;7281908;19;152657;-57
2022/09/14 04:48:52;;;;;;;;;;;;;;;22.26;74.67;100457.31;7282457;19;152588;-57
2022/09/14 04:51:21;;;;;;;;;;;;;;;22.27;74.33;100442.88;7283307;19;152210;-57
2022/09/14 04:53:49;;;;;;;;;;;;;;;22.27;74.24;100445.69;7281469;19;153255;-57
2022/09/14 04:56:17;;;;;;;;;;;;;;;22.32;74.53;100441.88;7283902;19;152835;-57
2022/09/14 04:58:47;;;;;;;;;;;;;;;22.29;74.52;100439.75;7279933;19;153571;-57
2022/09/14 05:01:22;;;;;;;;;;;;;;;22.29;74.60;100448.19;7282696;19;152469;-57
2022/09/14 05:03:52;;;;;;;;;;;;;;;22.27;74.79;100445.69;7288746;19;152583;-57
2022/09/14 05:06:24;;;;;;;;;;;;;;;22.28;74.56;100441.72;7281251;19;153198;-58
2022/09/14 05:08:52;;;;;;;;;;;;;;;22.27;74.97;100439.25;7281548;19;152247;-57
2022/09/14 05:11:24;;;;;;;;;;;;;;;22.27;74.50;100440.06;7282886;19;152904;-58
2022/09/14 05:13:51;;;;;;;;;;;;;;;22.30;74.67;100441.41;7273554;19;153022;-57
2022/09/14 05:16:18;;;;;;;;;;;;;;;22.29;74.19;100445.38;7284299;19;152357;-57
2022/09/14 05:18:45;;;;;;;;;;;;;;;22.28;74.50;100438.91;7282078;19;152651;-57
2022/09/14 05:21:14;;;;;;;;;;;;;;;22.28;74.73;100440.91;7275934;19;152652;-57
2022/09/14 05:23:42;;;;;;;;;;;;;;;22.27;74.23;100442.88;7279078;19;152283;-57
2022/09/14 05:26:09;;;;;;;;;;;;;;;22.27;74.59;100440.06;7289913;19;152687;-58
2022/09/14 05:28:36;;;;;;;;;;;;;;;22.26;74.40;100432.78;7277716;19;152573;-57
2022/09/14 05:31:04;;;;;;;;;;;;;;;22.27;74.29;100425.16;7282096;19;152938;-57
2022/09/14 05:33:31;;;;;;;;;;;;;;;22.27;74.41;100437.25;7281548;19;153565;-57
2022/09/14 05:36:00;;;;;;;;;;;;;;;22.28;74.30;100432.44;7279113;19;152676;-57
2022/09/14 05:38:29;;;;;;;;;;;;;;;22.26;74.70;100432.78;7283448;19;152017;-57
2022/09/14 05:40:56;;;;;;;;;;;;;;;22.28;74.44;100433.28;7281892;19;153359;-57
2022/09/14 05:43:23;;;;;;;;;;;;;;;22.27;74.37;100428.81;7280682;19;152950;-57
2022/09/14 05:45:51;;;;;;;;;;;;;;;22.27;74.40;100431.63;7280726;19;154166;-57
2022/09/14 05:48:19;;;;;;;;;;;;;;;22.26;74.64;100427.16;7289707;19;153641;-57
2022/09/14 05:50:46;;;;;;;;;;;;;;;22.25;75.00;100425.50;7281400;19;152836;-56
2022/09/14 05:53:13;;;;;;;;;;;;;;;22.25;74.63;100425.50;7277666;19;154743;-57
2022/09/14 05:55:40;;;;;;;;;;;;;;;22.27;74.71;100428.81;7282078;19;152479;-57
2022/09/14 05:58:07;;;;;;;;;;;;;;;22.26;74.87;100426.34;7280750;19;153471;-57
2022/09/14 06:00:34;;;;;;;;;;;;;;;22.26;74.94;100431.97;7279890;19;152791;-56
2022/09/14 06:03:01;;;;;;;;;;;;;;;22.26;75.13;100435.59;7282124;19;152771;-57
2022/09/14 06:05:30;;;;;;;;;;;;;;;22.27;74.76;100433.59;7276746;19;152567;-57
2022/09/14 06:08:09;;;;;;;;;;;;;;;22.25;74.98;100436.78;7280834;19;152244;-57
2022/09/14 06:10:36;;;;;;;;;;;;;;;22.26;74.92;100437.59;7287323;19;152171;-57
2022/09/14 06:13:03;;;;;;;;;;;;;;;22.25;75.14;100431.16;7274044;19;153139;-57
2022/09/14 06:15:34;;;;;;;;;;;;;;;22.26;75.25;100437.59;7275925;19;152697;-56
2022/09/14 06:18:03;;;;;;;;;;;;;;;22.25;74.98;100435.94;7284865;19;153123;-57
2022/09/14 06:20:30;;;;;;;;;;;;;;;22.24;74.71;100437.94;7286810;19;152634;-57
2022/09/14 06:22:57;;;;;;;;;;;;;;;22.25;74.97;100436.78;7286578;19;151931;-57
2022/09/14 06:25:24;;;;;;;;;;;;;;;22.25;75.04;100439.59;7288411;19;153454;-57
2022/09/14 06:27:55;;;;;;;;;;;;;;;22.25;75.11;100439.59;7282071;19;152556;-58
2022/09/14 06:30:23;;;;;;;;;;;;;;;22.27;75.09;100439.25;7286752;19;152266;-57
2022/09/14 06:32:50;;;;;;;;;;;;;;;22.26;75.20;100440.41;7292498;19;152432;-57
2022/09/14 06:35:18;;;;;;;;;;;;;;;22.27;74.95;100430.78;7287529;19;152283;-57
2022/09/14 06:37:45;;;;;;;;;;;;;;;22.26;74.71;100441.22;7286878;19;152848;-57
2022/09/14 06:40:12;;;;;;;;;;;;;;;22.26;74.81;100444.03;7286883;19;153408;-57
2022/09/14 06:42:39;;;;;;;;;;;;;;;22.26;74.72;100440.41;7286086;19;152162;-57
2022/09/14 06:45:06;;;;;;;;;;;;;;;22.27;74.91;100447.69;7284241;19;152891;-58
2022/09/14 06:47:33;;;;;;;;;;;;;;;22.27;74.58;100442.06;7286109;19;154238;-57
2022/09/14 06:50:00;;;;;;;;;;;;;;;22.26;74.60;100449.66;7286577;19;152410;-58
2022/09/14 06:52:26;;;;;;;;;;;;;;;22.25;74.58;100442.41;7284247;19;153898;-57
2022/09/14 06:54:58;;;;;;;;;;;;;;;22.26;74.41;100444.03;7293160;19;152487;-57
2022/09/14 06:57:27;;;;;;;;;;;;;;;22.25;74.95;100439.59;7284112;19;153927;-57
2022/09/14 06:59:54;;;;;;;;;;;;;;;22.25;75.12;100439.59;7283439;19;153082;-57
2022/09/14 07:02:22;;;;;;;;;;;;;;;22.26;74.83;100438.41;7286080;19;154755;-58
2022/09/14 07:04:49;;;;;;;;;;;;;;;22.31;75.28;100440.22;7284766;19;152249;-57
2022/09/14 07:07:15;;;;;;;;;;;;;;;22.29;74.39;100443.38;7285251;19;152754;-57
2022/09/14 07:09:42;;;;;;;;;;;;;;;22.22;74.17;100448.69;7285732;19;152519;-57
2022/09/14 07:12:10;;;;;;;;;;;;;;;22.20;73.94;100453.00;7284231;19;153461;-57
2022/09/14 07:14:37;;;;;;;;;;;;;;;22.15;73.74;100445.53;7288360;19;153258;-57
2022/09/14 07:17:04;;;;;;;;;;;;;;;22.11;73.17;100442.56;7284070;19;152866;-57
2022/09/14 07:19:31;;;;;;;;;;;;;;;22.09;72.49;100441.22;7286608;19;153428;-57
2022/09/14 07:22:00;;;;;;;;;;;;;;;22.11;72.21;100444.56;7287715;19;152744;-57
2022/09/14 07:24:27;;;;;;;;;;;;;;;22.02;72.45;100446.53;7283964;19;153544;-57
2022/09/14 07:26:54;;;;;;;;;;;;;;;22.01;69.20;100445.72;7286363;19;153376;-57
2022/09/14 07:29:23;;;;;;;;;;;;;;;21.97;68.61;100452.34;7282461;19;152489;-57
2022/09/14 07:31:55;;;;;;;;;;;;;;;21.96;68.02;100447.84;7285181;19;154330;-58
2022/09/14 07:34:24;;;;;;;;;;;;;;;21.91;67.53;100447.97;7284127;19;153380;-57
2022/09/14 07:36:51;;;;;;;;;;;;;;;21.88;67.44;100443.03;7295182;19;151978;-57
2022/09/14 07:39:18;;;;;;;;;;;;;;;21.85;67.37;100455.75;7284758;19;153759;-57
2022/09/14 07:41:45;;;;;;;;;;;;;;;21.83;67.86;100448.81;7288045;19;151814;-57
2022/09/14 07:44:13;;;;;;;;;;;;;;;21.78;67.58;100451.78;7280256;19;152414;-57
2022/09/14 07:46:41;;;;;;;;;;;;;;;21.76;67.54;100462.53;7285904;19;154244;-57
2022/09/14 07:49:08;;;;;;;;;;;;;;;21.68;67.45;100456.56;7285264;19;152501;-57
2022/09/14 07:51:35;;;;;;;;;;;;;;;21.64;67.72;100455.56;7287885;19;152575;-57
2022/09/14 07:54:03;;;;;;;;;;;;;;;21.61;67.44;100461.84;7233451;19;158147;-58
2022/09/14 07:56:29;;;;;;;;;;;;;;;21.57;67.42;100471.28;7285753;19;151876;-57
2022/09/14 07:58:57;;;;;;;;;;;;;;;21.58;67.55;100451.25;7286612;19;153500;-57
2022/09/14 08:01:45;;;;;;;;;;;;;;;21.53;67.84;100457.03;7285345;19;152359;-57
2022/09/14 08:04:12;;;;;;;;;;;;;;;21.51;67.59;100456.53;7283377;19;153676;-57
2022/09/14 08:06:39;;;;;;;;;;;;;;;21.49;67.40;100461.63;7284445;19;152947;-57
2022/09/14 08:09:07;;;;;;;;;;;;;;;21.44;67.53;100464.59;7284064;19;152129;-57
2022/09/14 08:11:34;;;;;;;;;;;;;;;21.41;67.99;100465.25;7286119;19;155675;-57
2022/09/14 08:14:03;;;;;;;;;;;;;;;21.37;67.66;100460.63;7277568;19;152947;-55
2022/09/14 08:16:31;;;;;;;;;;;;;;;21.39;67.91;100466.75;7280649;19;152055;-55
2022/09/14 08:18:58;;;;;;;;;;;;;;;21.35;68.57;100466.56;7283085;19;153389;-55
2022/09/14 08:21:26;;;;;;;;;;;;;;;21.34;68.42;100473.34;7292083;19;153602;-55
2022/09/14 08:23:53;;;;;;;;;;;;;;;21.30;68.29;100464.72;7283408;19;152714;-55
2022/09/14 08:26:21;;;;;;;;;;;;;;;21.28;68.15;100469.03;7284726;19;152214;-55
2022/09/14 08:28:49;;;;;;;;;;;;;;;21.30;68.46;100469.53;7282427;19;151754;-55
2022/09/14 08:31:20;;;;;;;;;;;;;;;21.27;68.26;100464.56;7285934;19;152782;-55
2022/09/14 08:33:48;;;;;;;;;;;;;;;21.24;68.45;100468.84;7281040;19;153566;-55
2022/09/14 08:36:16;;;;;;;;;;;;;;;21.22;68.15;100464.69;7285788;19;151965;-55
2022/09/14 08:38:42;;;;;;;;;;;;;;;21.18;68.47;100472.94;7283662;19;153314;-55
2022/09/14 08:41:28;;;;;;;;;;;;;;;21.21;68.18;100474.31;7282208;19;154325;-55
2022/09/14 08:44:15;;;;;;;;;;;;;;;21.13;68.50;100467.47;7288515;19;152243;-55
2022/09/14 08:46:57;;;;;;;;;;;;;;;21.14;67.69;100463.53;7283435;19;154178;-55
2022/09/14 08:49:26;;;;;;;;;;;;;;;21.13;68.23;100461.84;7284454;19;152346;-55
2022/09/14 08:51:54;;;;;;;;;;;;;;;21.12;68.21;100465.78;7285677;19;153873;-55
2022/09/14 08:54:21;;;;;;;;;;;;;;;21.17;68.52;100473.25;7278983;19;152972;-55
2022/09/14 08:57:02;;;;;;;;;;;;;;;21.17;67.87;100470.47;7286086;19;152495;-55
2022/09/14 08:59:36;;;;;;;;;;;;;;;21.14;67.98;100468.31;7283431;19;152717;-55
2022/09/14 09:02:05;;;;;;;;;;;;;;;21.14;67.95;100466.31;7283937;19;153415;-55
2022/09/14 09:04:50;;;;;;;;;;;;;;;21.10;67.70;100467.28;7290239;19;152281;-55
2022/09/14 09:07:29;;;;;;;;;;;;;;;21.09;67.78;100471.22;7283049;19;153124;-55
2022/09/14 09:09:57;;;;;;;;;;;;;;;21.09;67.86;100476.84;7282159;19;151687;-54
2022/09/14 09:12:33;;;;;;;;;;;;;;;21.07;67.99;100480.00;7282209;19;153012;-55
2022/09/14 09:15:02;;;;;;;;;;;;;;;21.10;68.42;100478.50;7248484;19;154640;-55
2022/09/14 09:17:43;;;;;;;;;;;;;;;21.09;68.05;100476.84;7262687;19;153185;-55
2022/09/14 09:20:23;;;;;;;;;;;;;;;21.13;68.15;100466.66;7280988;19;152170;-55
2022/09/14 09:22:53;;;;;;;;;;;;;;;21.12;67.77;100470.59;7278778;19;153036;-55
2022/09/14 09:25:26;;;;;;;;;;;;;;;21.12;67.74;100474.22;7279927;19;153121;-55
2022/09/14 09:27:59;;;;;;;;;;;;;;;21.10;67.83;100467.28;7277476;19;152982;-54
2022/09/14 09:30:27;;;;;;;;;;;;;;;21.11;67.83;100471.75;7281704;19;152541;-55
2022/09/14 09:32:53;;;;;;;;;;;;;;;21.09;67.66;100471.22;7280232;19;152726;-55
2022/09/14 09:35:22;;;;;;;;;;;;;;;21.09;67.55;100474.88;7278989;19;154141;-55
2022/09/14 09:37:56;;;;;;;;;;;;;;;21.11;67.54;100472.56;7266411;19;156565;-55
2022/09/14 09:40:33;;;;;;;;;;;;;;;21.12;67.67;100476.22;7283110;19;154670;-55
2022/09/14 09:43:09;;;;;;;;;;;;;;;21.13;67.74;100483.50;7278519;19;153108;-55
2022/09/14 09:45:46;;;;;;;;;;;;;;;21.13;67.93;100469.44;7279228;19;152423;-55
2022/09/14 09:48:14;;;;;;;;;;;;;;;21.13;67.85;100472.25;7282273;19;152859;-55
2022/09/14 09:50:54;;;;;;;;;;;;;;;21.12;67.86;100465.78;7288312;19;153314;-55
2022/09/14 09:53:21;;;;;;;;;;;;;;;21.13;67.53;100470.28;7278122;19;153519;-55
2022/09/14 09:55:48;;;;;;;;;;;;;;;21.14;67.77;100471.94;7281160;19;154224;-55
2022/09/14 09:58:22;;;;;;;;;;;;;;;21.15;67.59;100475.59;7280639;19;152699;-54
2022/09/14 10:00:59;;;;;;;;;;;;;;;21.12;67.48;100467.78;7280683;19;153090;-55
2022/09/14 10:03:30;;;;;;;;;;;;;;;21.12;67.42;100473.41;7280803;19;154464;-55
2022/09/14 10:06:08;;;;;;;;;;;;;;;21.13;67.43;100470.28;7281491;19;152363;-55
2022/09/14 10:08:39;;;;;;;;;;;;;;;21.13;67.50;100475.06;7280789;19;153576;-54
2022/09/14 10:11:25;;;;;;;;;;;;;;;21.12;67.49;100470.59;7281407;19;152390;-55
2022/09/14 10:13:52;;;;;;;;;;;;;;;21.16;67.82;100471.63;7283227;19;152254;-55
2022/09/14 10:16:19;;;;;;;;;;;;;;;21.18;67.88;100464.53;7279832;19;153556;-55
2022/09/14 10:18:47;;;;;;;;;;;;;;;21.17;68.12;100464.84;7281201;19;152446;-55
2022/09/14 10:21:16;;;;;;;;;;;;;;;21.19;68.23;100463.38;7282029;19;152168;-55
2022/09/14 10:23:43;;;;;;;;;;;;;;;21.21;68.78;100455.44;7278928;19;154138;-55
2022/09/14 10:26:12;;;;;;;;;;;;;;;21.22;68.84;100457.09;7281273;19;152638;-55
2022/09/14 10:28:43;;;;;;;;;;;;;;;21.27;68.78;100461.75;7273131;19;153617;-55
2022/09/14 10:31:10;;;;;;;;;;;;;;;21.29;68.75;100453.84;7279647;19;154026;-53
2022/09/14 10:33:37;;;;;;;;;;;;;;;21.32;69.19;100449.53;7278660;19;153625;-53
2022/09/14 10:36:12;;;;;;;;;;;;;;;21.32;68.91;100450.34;7287566;19;153826;-55
2022/09/14 10:38:51;;;;;;;;;;;;;;;21.36;68.71;100447.72;7279033;19;152462;-53
2022/09/14 10:41:18;;;;;;;;;;;;;;;21.37;69.06;100455.84;7278689;19;153690;-53
2022/09/14 10:43:47;;;;;;;;;;;;;;;21.41;68.97;100456.00;7275199;19;153454;-53
2022/09/14 10:46:19;;;;;;;;;;;;;;;21.42;68.72;100452.03;7280261;19;151818;-53
2022/09/14 10:48:59;;;;;;;;;;;;;;;21.45;68.43;100448.56;7278801;19;152436;-54
2022/09/14 10:51:32;;;;;;;;;;;;;;;21.47;68.60;100443.47;7278241;19;152307;-54
2022/09/14 10:53:58;;;;;;;;;;;;;;;21.48;68.23;100437.53;7276282;19;152164;-54
2022/09/14 10:56:32;;;;;;;;;;;;;;;21.51;68.58;100442.47;7276163;19;153154;-54
2022/09/14 10:59:09;;;;;;;;;;;;;;;21.53;68.17;100440.16;7282489;19;154128;-57
2022/09/14 11:01:54;;;;;;;;;;;;;;;21.53;68.19;100442.16;7279387;19;152738;-54
2022/09/14 11:04:33;;;;;;;;;;;;;;;21.55;68.21;100440.66;7276550;19;154259;-54
2022/09/14 11:07:11;;;;;;;;;;;;;;;21.56;68.56;100445.13;7287798;19;152650;-54
2022/09/14 11:09:43;;;;;;;;;;;;;;;21.55;67.96;100449.09;7285615;19;152313;-54
2022/09/14 11:12:25;;;;;;;;;;;;;;;21.58;68.24;100441.97;7283463;19;153467;-54
2022/09/14 11:15:07;;;;;;;;;;;;;;;21.58;68.28;100445.63;7282484;19;152282;-54
2022/09/14 11:17:55;;;;;;;;;;;;;;;21.61;68.67;100450.59;7287042;19;152266;-54
2022/09/14 11:20:40;;;;;;;;;;;;;;;21.63;68.71;100448.28;7292323;19;153806;-54
2022/09/14 11:23:26;;;;;;;;;;;;;;;21.65;68.33;100451.59;7285917;19;152959;-54
2022/09/14 11:26:12;;;;;;;;;;;;;;;21.66;68.39;100456.09;7286086;19;154058;-54
2022/09/14 11:28:45;;;;;;;;;;;;;;;21.69;67.94;100452.59;7284017;19;152034;-54
2022/09/14 11:31:17;;;;;;;;;;;;;;;21.69;68.20;100454.59;7285150;19;153605;-54
2022/09/14 11:33:45;;;;;;;;;;;;;;;21.71;68.01;100455.09;7284887;19;153691;-54
2022/09/14 11:36:15;;;;;;;;;;;;;;;21.72;67.93;100456.72;7287481;19;152045;-54
2022/09/14 11:38:46;;;;;;;;;;;;;;;21.77;68.06;100456.56;7284937;19;152764;-54
2022/09/14 11:41:18;;;;;;;;;;;;;;;21.81;67.85;100470.78;7286352;19;154211;-53
2022/09/14 11:43:45;;;;;;;;;;;;;;;21.87;68.03;100463.88;7291396;19;152493;-53
2022/09/14 11:46:14;;;;;;;;;;;;;;;21.89;67.77;100462.41;7285792;19;154001;-53
2022/09/14 11:48:41;;;;;;;;;;;;;;;21.90;68.05;100451.94;7286236;19;152031;-53
2022/09/14 11:51:31;;;;;;;;;;;;;;;21.89;68.08;100448.34;7287693;19;153895;-54
2022/09/14 11:53:58;;;;;;;;;;;;;;;21.86;68.43;100453.75;7282917;19;152731;-53
2022/09/14 11:56:31;;;;;;;;;;;;;;;21.93;68.24;100456.97;7288163;19;152411;-53
2022/09/14 11:58:59;;;;;;;;;;;;;;;21.95;67.88;100455.47;7282532;19;153534;-54
2022/09/14 12:01:30;;;;;;;;;;;;;;;21.94;68.42;100462.25;7285495;19;152413;-54
2022/09/14 12:04:00;;;;;;;;;;;;;;;21.99;68.52;100466.88;7284040;19;152233;-54
2022/09/14 12:06:29;;;;;;;;;;;;;;;22.06;69.27;100468.06;7293013;19;152321;-56
2022/09/14 12:09:22;;;;;;;;;;;;;;;22.07;69.73;100457.63;7246663;19;153375;-54
2022/09/14 12:11:53;;;;;;;;;;;;;;;22.05;69.93;100463.59;7277292;19;152779;-54
2022/09/14 12:14:23;;;;;;;;;;;;;;;22.07;70.07;100454.81;7276672;19;153580;-54
2022/09/14 12:17:13;;;;;;;;;;;;;;;22.08;69.80;100462.09;7283517;19;152556;-54
2022/09/14 12:20:19;;;;;;;;;;;;;;;22.07;69.53;100458.47;7279819;19;155634;-54
2022/09/14 12:22:47;;;;;;;;;;;;;;;22.15;69.57;100454.00;7281258;19;153961;-54
2022/09/14 12:25:17;;;;;;;;;;;;;;;22.17;69.51;100460.09;7283643;19;152462;-54
2022/09/14 12:27:45;;;;;;;;;;;;;;;22.22;69.40;100467.53;7281082;19;153314;-54
2022/09/14 12:30:32;;;;;;;;;;;;;;;22.21;69.42;100461.13;7288615;19;153511;-53
2022/09/14 12:33:24;;;;;;;;;;;;;;;22.24;69.00;100459.63;7281610;19;153343;-54
2022/09/14 12:35:51;;;;;;;;;;;;;;;22.26;69.05;100458.09;7281317;19;154865;-53
2022/09/14 12:38:38;;;;;;;;;;;;;;;22.27;68.63;100459.75;7283682;19;152763;-55
2022/09/14 12:41:07;;;;;;;;;;;;;;;22.26;68.77;100458.09;7283856;19;152537;-54
2022/09/14 12:43:34;;;;;;;;;;;;;;;22.26;68.47;100463.72;7279777;19;152648;-54
2022/09/14 12:46:00;;;;;;;;;;;;;;;22.25;68.53;100470.53;7283608;19;153972;-54
2022/09/14 12:48:53;;;;;;;;;;;;;;;22.26;68.13;100477.00;7282979;19;153153;-54